Data for 02/02/2017

Time Sea-Level Adjusted Pressure Absolute Pressure Temperature Relative Humidity Dew Point   
(mb) (inHg) (mb) (inHg) (C) (F) (%) (C) (F)
00:05 1026 30.3 855 25.25 -17.4 0.8 71 -21.4 -6.4
00:10 1026 30.3 855 25.25 -16.9 1.6 70 -21.1 -6
00:15 1026 30.3 855 25.25 -16.5 2.3 70 -20.9 -5.5
00:20 1026 30.3 855 25.25 -16.5 2.3 69 -20.9 -5.5
00:25 1026 30.3 855 25.25 -16.6 2.2 70 -20.9 -5.6
00:30 1026 30.3 855 25.25 -16.7 1.9 70 -21 -5.8
00:35 1026 30.3 855 25.25 -17 1.5 71 -21.1 -6
00:40 1026 30.3 855 25.25 -17.1 1.2 71 -21.1 -6
00:45 1026 30.3 855 25.25 -17.1 1.2 72 -21.1 -6
00:50 1026 30.3 855 25.25 -17.2 1 72 -21.2 -6.1
00:55 1026 30.3 855 25.25 -17.2 1.1 71 -21.2 -6.2
01:00 1026 30.3 855 25.25 -17.1 1.2 71 -21.2 -6.1
01:05 1026 30.3 855 25.25 -16.8 1.7 70 -21.1 -5.9
01:10 1026 30.3 855 25.25 -16.7 1.9 70 -21 -5.7
01:15 1026 30.3 855 25.25 -16.7 1.9 70 -20.9 -5.6
01:20 1026 30.3 855 25.25 -16.6 2.1 70 -20.8 -5.5
01:25 1026 30.3 855 25.25 -16.5 2.3 70 -20.7 -5.3
01:30 1025 30.27 855 25.25 -16.2 2.9 69 -20.5 -5
01:35 1025 30.27 855 25.25 -16 3.3 69 -20.5 -4.9
01:40 1025 30.27 855 25.25 -16 3.3 69 -20.4 -4.7
01:45 1025 30.27 854 25.22 -16 3.2 69 -20.5 -4.8
01:50 1025 30.27 854 25.22 -16 3.2 69 -20.4 -4.7
01:55 1025 30.27 854 25.22 -16.1 3.1 70 -20.4 -4.7
02:00 1025 30.27 854 25.22 -16 3.1 70 -20.4 -4.7
02:05 1025 30.27 854 25.22 -15.9 3.3 70 -20.2 -4.3
02:10 1025 30.27 854 25.22 -15.9 3.4 70 -20.1 -4.2
02:15 1025 30.27 854 25.22 -15.9 3.5 70 -20.1 -4.2
02:20 1025 30.27 854 25.22 -15.8 3.5 71 -20 -4
02:25 1025 30.27 854 25.22 -15.8 3.5 71 -20 -4
02:30 1025 30.27 854 25.22 -15.8 3.5 71 -20 -4
02:35 1025 30.27 854 25.22 -15.9 3.5 71 -20 -3.9
02:40 1025 30.27 855 25.25 -16.2 2.9 72 -20.2 -4.3
02:45 1025 30.27 855 25.25 -16.9 1.5 74 -20.5 -4.8
02:50 1025 30.27 855 25.25 -17.1 1.2 75 -20.5 -5
02:55 1025 30.27 854 25.22 -17 1.4 75 -20.5 -4.8
03:00 1025 30.27 854 25.22 -17 1.4 75 -20.5 -4.9
03:05 1025 30.27 854 25.22 -17.1 1.2 76 -20.5 -4.8
03:10 1025 30.27 854 25.22 -17.1 1.2 76 -20.4 -4.8
03:15 1025 30.27 854 25.22 -17 1.4 76 -20.3 -4.6
03:20 1025 30.27 854 25.22 -17 1.4 76 -20.3 -4.5
03:25 1025 30.27 854 25.22 -17 1.3 76 -20.3 -4.6
03:30 1025 30.27 854 25.22 -16.8 1.7 76 -20.1 -4.2
03:35 1025 30.27 854 25.22 -16.6 2.2 76 -19.9 -3.8
03:40 1025 30.27 854 25.22 -16.1 3 74 -19.8 -3.6
03:45 1025 30.27 854 25.22 -15.8 3.6 73 -19.6 -3.4
03:50 1025 30.27 854 25.22 -15.6 3.9 72 -19.5 -3.2
03:55 1025 30.27 854 25.22 -16.4 2.6 74 -20 -4
04:00 1025 30.27 854 25.22 -17.2 1.1 76 -20.5 -4.8
04:05 1024 30.24 854 25.22 -17.3 0.9 76 -20.5 -5
04:10 1024 30.24 854 25.22 -17.5 0.5 75 -20.9 -5.6
04:15 1024 30.24 854 25.22 -17.6 0.2 76 -20.9 -5.6
04:20 1024 30.24 854 25.22 -17.6 0.3 76 -20.9 -5.5
04:25 1024 30.24 853 25.19 -17.5 0.5 75 -20.9 -5.6
04:30 1024 30.24 853 25.19 -17.3 0.8 75 -20.8 -5.4
04:35 1024 30.24 853 25.19 -17.1 1.2 75 -20.5 -4.9
04:40 1024 30.24 853 25.19 -17 1.4 76 -20.3 -4.6
04:45 1024 30.24 853 25.19 -16.9 1.7 76 -20.2 -4.4
04:50 1024 30.24 853 25.19 -16.6 2.1 76 -19.9 -3.8
04:55 1024 30.24 853 25.19 -16.5 2.4 75 -20 -3.9
05:00 1024 30.24 853 25.19 -16.4 2.5 73 -20.2 -4.3
05:05 1024 30.24 853 25.19 -16.6 2.1 75 -20.1 -4.2
05:10 1024 30.24 853 25.19 -16.8 1.8 75 -20.3 -4.5
05:15 1024 30.24 853 25.19 -17.1 1.3 76 -20.4 -4.7
05:20 1024 30.24 853 25.19 -17.1 1.2 77 -20.2 -4.3
05:25 1024 30.24 853 25.19 -16.8 1.8 76 -20.1 -4.2
05:30 1024 30.24 853 25.19 -16.9 1.6 77 -20 -3.9
05:35 1024 30.24 853 25.19 -16.9 1.5 77 -20.1 -4.2
05:40 1024 30.24 853 25.19 -16.9 1.7 76 -20.2 -4.3
05:45 1024 30.24 853 25.19 -17 1.4 78 -19.9 -3.9
05:50 1024 30.24 853 25.19 -16.9 1.5 78 -20 -4
05:55 1024 30.24 853 25.19 -16.9 1.6 76 -20.2 -4.4
06:00 1024 30.24 853 25.19 -16.7 2 76 -20 -4.1
06:05 1024 30.24 853 25.19 -17.1 1.2 77 -20.2 -4.4
06:10 1024 30.24 853 25.19 -17.1 1.2 76 -20.4 -4.7
06:15 1024 30.24 853 25.19 -16.8 1.7 75 -20.2 -4.4
06:20 1024 30.24 853 25.19 -16.7 2 75 -20.1 -4.3
06:25 1024 30.24 853 25.19 -16.7 1.9 75 -20.2 -4.3
06:30 1024 30.24 853 25.19 -16.7 1.9 74 -20.3 -4.5
06:35 1024 30.24 853 25.19 -16.6 2.1 74 -20.2 -4.3
06:40 1024 30.24 853 25.19 -16.5 2.3 74 -20.1 -4.2
06:45 1024 30.24 853 25.19 -16.6 2.1 75 -20.1 -4.2
06:50 1024 30.24 853 25.19 -16.6 2.2 74 -20.2 -4.3
06:55 1024 30.24 853 25.19 -16.5 2.3 74 -20.1 -4.2
07:00 1024 30.24 853 25.19 -16.4 2.4 73 -20.1 -4.3
07:05 1023 30.21 853 25.19 -16.4 2.4 74 -20 -4
07:10 1023 30.21 853 25.19 -16.9 1.7 77 -20 -4.1
07:15 1023 30.21 853 25.19 -16.9 1.5 76 -20.2 -4.3
07:20 1023 30.21 853 25.19 -17 1.4 77 -20.2 -4.3
07:25 1023 30.21 853 25.19 -17.3 0.8 78 -20.3 -4.6
07:30 1023 30.21 853 25.19 -17.6 0.3 79 -20.5 -4.9
07:35 1023 30.21 853 25.19 -17.7 0.1 80 -20.4 -4.8
07:40 1023 30.21 853 25.19 -17.7 0.1 79 -20.6 -5
07:45 1023 30.21 853 25.19 -17.8 -0 79 -20.5 -5
07:50 1023 30.21 853 25.19 -17.8 0 79 -20.5 -4.9
07:55 1024 30.24 853 25.19 -17.9 -0.2 81 -20.5 -4.8
08:00 1024 30.24 853 25.19 -18.2 -0.7 81 -20.7 -5.2
08:05 1024 30.24 853 25.19 -18 -0.4 81 -20.5 -4.8
08:10 1023 30.21 853 25.19 -17.5 0.5 78 -20.4 -4.8
08:15 1023 30.21 853 25.19 -17.3 0.8 79 -20.2 -4.4
08:20 1023 30.21 853 25.19 -17.5 0.6 79 -20.3 -4.5
08:25 1023 30.21 853 25.19 -17.6 0.3 80 -20.2 -4.4
08:30 1023 30.21 853 25.19 -17.7 0.2 80 -20.4 -4.8
08:35 1023 30.21 853 25.19 -17.8 -0 81 -20.3 -4.6
08:40 1023 30.21 853 25.19 -17.5 0.4 80 -20.2 -4.3
08:45 1023 30.21 853 25.19 -17.4 0.8 80 -20.1 -4.1
08:50 1023 30.21 853 25.19 -17.2 1.1 80 -19.8 -3.7
08:55 1023 30.21 853 25.19 -17.1 1.3 80 -19.8 -3.6
09:00 1023 30.21 853 25.19 -17 1.4 80 -19.7 -3.5
09:05 1023 30.21 853 25.19 -17 1.4 81 -19.6 -3.2
09:10 1023 30.21 853 25.19 -16.8 1.7 80 -19.5 -3.2
09:15 1023 30.21 853 25.19 -16.8 1.7 80 -19.5 -3.2
09:20 1023 30.21 853 25.19 -16.8 1.7 80 -19.4 -3
09:25 1023 30.21 853 25.19 -16.9 1.6 80 -19.5 -3.1
09:30 1023 30.21 853 25.19 -17.1 1.3 81 -19.6 -3.4
09:35 1024 30.24 853 25.19 -17.1 1.2 80 -19.8 -3.7
09:40 1024 30.24 853 25.19 -17.1 1.3 80 -19.7 -3.5
09:45 1024 30.24 853 25.19 -17.1 1.3 80 -19.7 -3.5
09:50 1024 30.24 853 25.19 -17 1.5 79 -19.7 -3.5
09:55 1024 30.24 853 25.19 -17 1.5 80 -19.7 -3.5
10:00 1024 30.24 853 25.19 -16.7 2 79 -19.5 -3.2
10:05 1024 30.24 853 25.19 -16.5 2.3 78 -19.4 -3
10:10 1024 30.24 853 25.19 -16.5 2.3 79 -19.4 -2.9
10:15 1024 30.24 853 25.19 -16.5 2.2 79 -19.4 -2.9
10:20 1024 30.24 853 25.19 -16.2 2.8 78 -19.2 -2.6
10:25 1024 30.24 853 25.19 -16.1 3 76 -19.4 -2.9
10:30 1024 30.24 853 25.19 -16.1 3 77 -19.4 -2.8
10:35 1024 30.24 853 25.19 -15.7 3.8 76 -19 -2.2
10:40 1024 30.24 853 25.19 -16 3.3 77 -19.1 -2.4
10:45 1024 30.24 853 25.19 -16.1 3 77 -19.2 -2.6
10:50 1024 30.24 853 25.19 -15.8 3.6 76 -19.1 -2.5
10:55 1024 30.24 853 25.19 -15.7 3.8 75 -19.2 -2.5
11:00 1024 30.24 853 25.19 -15.5 4.2 74 -19 -2.3
11:05 1024 30.24 853 25.19 -15.3 4.5 73 -19.1 -2.3
11:10 1024 30.24 853 25.19 -15.6 4 75 -19 -2.3
11:15 1024 30.24 853 25.19 -15.2 4.6 73 -19.1 -2.3
11:20 1024 30.24 853 25.19 -15.2 4.7 73 -19 -2.3
11:25 1024 30.24 853 25.19 -15.2 4.7 72 -19.1 -2.3
11:30 1024 30.24 853 25.19 -15 5.1 71 -19 -2.3
11:35 1024 30.24 853 25.19 -15.1 4.8 71 -19.2 -2.6
11:40 1024 30.24 853 25.19 -15.1 4.8 72 -19 -2.3
11:45 1024 30.24 853 25.19 -14.9 5.2 73 -18.8 -1.8
11:50 1024 30.24 853 25.19 -14.6 5.8 71 -18.8 -1.8
11:55 1024 30.24 853 25.19 -14.8 5.4 73 -18.6 -1.4
12:00 1024 30.24 853 25.19 -15.2 4.7 72 -19.2 -2.6
12:05 1024 30.24 853 25.19 -15.8 3.5 75 -19.3 -2.7
12:10 1024 30.24 853 25.19 -15.2 4.6 73 -19 -2.2
12:15 1024 30.24 854 25.22 -15.2 4.6 72 -19.3 -2.7
12:20 1024 30.24 854 25.22 -15.3 4.4 72 -19.2 -2.6
12:25 1024 30.24 854 25.22 -14.7 5.5 70 -19.1 -2.3
12:30 1024 30.24 853 25.19 -14.5 6 69 -18.9 -2.1
12:35 1024 30.24 853 25.19 -14.2 6.4 68 -19 -2.1
12:40 1024 30.24 853 25.19 -13.9 6.9 67 -18.9 -1.9
12:45 1024 30.24 853 25.19 -13.9 6.9 65 -19.1 -2.4
12:50 1024 30.24 854 25.22 -14.1 6.6 67 -19.1 -2.3
12:55 1024 30.24 853 25.19 -13.8 7.3 66 -18.8 -1.9
13:00 1024 30.24 853 25.19 -13.5 7.6 66 -18.7 -1.6
13:05 1024 30.24 853 25.19 -13.3 8.1 64 -18.7 -1.6
13:10 1024 30.24 853 25.19 -13.4 7.9 63 -19.1 -2.3
13:15 1024 30.24 853 25.19 -13.9 7 66 -18.9 -2.1
13:20 1024 30.24 853 25.19 -14.1 6.6 67 -19.1 -2.3
13:25 1024 30.24 853 25.19 -14.5 6 69 -18.9 -2.1
13:30 1024 30.24 853 25.19 -14 6.7 65 -19.2 -2.5
13:35 1024 30.24 853 25.19 -13.3 8.1 63 -19 -2.2
13:40 1024 30.24 853 25.19 -13.2 8.2 63 -18.8 -1.9
13:45 1024 30.24 853 25.19 -13.3 8.1 64 -18.7 -1.7
13:50 1024 30.24 853 25.19 -12.4 9.8 60 -18.6 -1.6
13:55 1024 30.24 853 25.19 -11.8 10.8 56 -19 -2.2
14:00 1024 30.24 853 25.19 -11.6 11.2 56 -18.8 -1.8
14:05 1024 30.24 853 25.19 -12.2 10.1 59 -18.7 -1.7
14:10 1024 30.24 853 25.19 -12.8 9 59 -19.2 -2.5
14:15 1024 30.24 853 25.19 -13.1 8.4 62 -19 -2.3
14:20 1024 30.24 853 25.19 -12.3 9.9 58 -18.9 -2
14:25 1024 30.24 853 25.19 -13.4 7.8 63 -19 -2.2
14:30 1024 30.24 853 25.19 -13.1 8.4 61 -19.2 -2.6
14:35 1024 30.24 853 25.19 -12.9 8.8 60 -19.2 -2.6
14:40 1024 30.24 853 25.19 -13.2 8.3 62 -19 -2.2
14:45 1024 30.24 853 25.19 -13.4 7.9 62 -19.3 -2.7
14:50 1024 30.24 853 25.19 -13.5 7.8 63 -19.1 -2.4
14:55 1024 30.24 853 25.19 -13.1 8.4 61 -19.2 -2.5
15:00 1024 30.24 853 25.19 -13.3 8.1 63 -18.9 -2
15:05 1024 30.24 853 25.19 -12.8 9 60 -19 -2.2
15:10 1024 30.24 853 25.19 -12.4 9.7 57 -19.4 -2.9
15:15 1024 30.24 853 25.19 -12.2 10 58 -18.9 -2
15:20 1024 30.24 853 25.19 -12.9 8.7 61 -18.9 -2
15:25 1024 30.24 853 25.19 -13.6 7.6 63 -19.3 -2.7
15:30 1024 30.24 853 25.19 -13.2 8.3 62 -18.9 -2
15:35 1024 30.24 853 25.19 -13.2 8.3 61 -19.3 -2.7
15:40 1024 30.24 853 25.19 -13.1 8.4 62 -19 -2.2
15:45 1024 30.24 853 25.19 -12.9 8.8 59 -19.3 -2.7
15:50 1024 30.24 853 25.19 -13.2 8.3 61 -19.1 -2.4
15:55 1024 30.24 853 25.19 -12.9 8.9 61 -19 -2.2
16:00 1024 30.24 853 25.19 -12.1 10.2 57 -18.9 -2.1
16:05 1024 30.24 853 25.19 -11.5 11.2 54 -19.1 -2.3
16:10 1024 30.24 853 25.19 -12.8 9 59 -19.2 -2.5
16:15 1024 30.24 853 25.19 -13.1 8.5 61 -19.2 -2.5
16:20 1024 30.24 853 25.19 -13.2 8.3 60 -19.3 -2.8
16:25 1024 30.24 854 25.22 -12.7 9.2 58 -19.3 -2.8
16:30 1024 30.24 854 25.22 -12.6 9.3 58 -19.2 -2.6
16:35 1024 30.24 854 25.22 -12.7 9.2 58 -19.3 -2.8
16:40 1024 30.24 854 25.22 -12.8 8.9 58 -19.4 -2.9
16:45 1024 30.24 854 25.22 -12.6 9.4 58 -19.3 -2.7
16:50 1025 30.27 854 25.22 -12.4 9.7 57 -19.2 -2.6
16:55 1024 30.24 854 25.22 -12.3 9.9 57 -19.1 -2.4
17:00 1025 30.27 854 25.22 -12.4 9.7 58 -19.1 -2.4
17:05 1025 30.27 854 25.22 -12.6 9.4 58 -19.2 -2.6
17:10 1025 30.27 854 25.22 -12.6 9.2 58 -19.3 -2.8
17:15 1025 30.27 854 25.22 -12.6 9.4 57 -19.4 -2.8
17:20 1025 30.27 854 25.22 -12.8 8.9 58 -19.5 -3
17:25 1025 30.27 854 25.22 -12.8 9 58 -19.5 -3.1
17:30 1025 30.27 854 25.22 -12.9 8.8 59 -19.4 -2.9
17:35 1025 30.27 854 25.22 -12.8 9 57 -19.5 -3.1
17:40 1025 30.27 854 25.22 -12.8 8.9 58 -19.5 -3.2
17:45 1025 30.27 854 25.22 -13.1 8.4 59 -19.5 -3.2
17:50 1025 30.27 854 25.22 -13.5 7.6 61 -19.5 -3.1
17:55 1025 30.27 854 25.22 -13.4 8 59 -19.8 -3.6
18:00 1025 30.27 854 25.22 -13.3 8 60 -19.6 -3.3
18:05 1025 30.27 854 25.22 -13.3 8.1 59 -19.7 -3.5
18:10 1025 30.27 854 25.22 -13.4 7.9 60 -19.7 -3.4
18:15 1025 30.27 854 25.22 -13.9 7.1 62 -19.6 -3.4
18:20 1025 30.27 854 25.22 -14 6.9 62 -19.7 -3.4
18:25 1025 30.27 854 25.22 -14.1 6.7 63 -19.7 -3.4
18:30 1025 30.27 854 25.22 -14.5 5.9 65 -19.8 -3.6
18:35 1025 30.27 854 25.22 -14.7 5.5 66 -19.8 -3.6
18:40 1025 30.27 854 25.22 -14.8 5.3 65 -19.9 -3.9
18:45 1025 30.27 854 25.22 -15 5 67 -19.9 -3.8
18:50 1025 30.27 854 25.22 -15.3 4.6 69 -19.8 -3.6
18:55 1025 30.27 854 25.22 -15.3 4.4 68 -20 -4.1
19:00 1025 30.27 854 25.22 -16 3.3 69 -20.4 -4.7
19:05 1025 30.27 854 25.22 -16.6 2.2 71 -20.7 -5.2
19:10 1025 30.27 854 25.22 -16.9 1.5 73 -20.7 -5.3
19:15 1025 30.27 854 25.22 -17.1 1.1 73 -20.9 -5.7
19:20 1025 30.27 854 25.22 -17.4 0.8 73 -21.1 -5.9
19:25 1025 30.27 854 25.22 -17.7 0.2 74 -21.3 -6.4
19:30 1025 30.27 854 25.22 -17.9 -0.2 75 -21.4 -6.5
19:35 1025 30.27 854 25.22 -17.9 -0.2 74 -21.4 -6.6
19:40 1025 30.27 854 25.22 -18 -0.5 74 -21.6 -6.9
19:45 1025 30.27 854 25.22 -18.3 -0.9 74 -21.8 -7.3
19:50 1025 30.27 854 25.22 -18.4 -1.2 74 -22 -7.6
19:55 1025 30.27 854 25.22 -18.8 -1.8 74 -22.3 -8.1
20:00 1025 30.27 854 25.22 -19 -2.2 75 -22.4 -8.3
20:05 1025 30.27 854 25.22 -19.1 -2.5 75 -22.5 -8.6
20:10 1025 30.27 854 25.22 -19.4 -2.9 75 -22.7 -8.9
20:15 1025 30.27 854 25.22 -19.6 -3.3 76 -22.9 -9.2
20:20 1025 30.27 854 25.22 -19.6 -3.3 75 -22.9 -9.3
20:25 1025 30.27 854 25.22 -19.6 -3.3 75 -23 -9.4
20:30 1025 30.27 854 25.22 -19.5 -3.1 77 -22.6 -8.7
20:35 1025 30.27 854 25.22 -19.1 -2.3 75 -22.5 -8.5
20:40 1025 30.27 854 25.22 -19 -2.2 73 -22.7 -8.8
20:45 1025 30.27 854 25.22 -19.2 -2.5 73 -22.8 -9.1
20:50 1025 30.27 854 25.22 -19.2 -2.6 74 -22.8 -9
20:55 1025 30.27 854 25.22 -19.3 -2.7 74 -22.9 -9.2
21:00 1025 30.27 854 25.22 -19.3 -2.8 72 -23.1 -9.7
21:05 1025 30.27 854 25.22 -19.5 -3.1 74 -23.1 -9.5
21:10 1025 30.27 854 25.22 -19.7 -3.4 75 -23.1 -9.6
21:15 1024 30.24 854 25.22 -19.6 -3.2 74 -23 -9.5
21:20 1024 30.24 854 25.22 -19.5 -3.1 74 -23 -9.4
21:25 1024 30.24 853 25.19 -19.5 -3 73 -23.1 -9.6
21:30 1024 30.24 853 25.19 -19.5 -3 74 -23 -9.4
21:35 1024 30.24 853 25.19 -19.4 -3 73 -23.1 -9.5
21:40 1024 30.24 853 25.19 -19.5 -3 74 -23 -9.4
21:45 1024 30.24 853 25.19 -19.2 -2.6 74 -22.7 -8.9
21:50 1024 30.24 853 25.19 -18.9 -2 71 -22.9 -9.2
21:55 1024 30.24 853 25.19 -19.1 -2.3 71 -23.1 -9.6
22:00 1024 30.24 853 25.19 -19.3 -2.7 72 -23.1 -9.6
22:05 1024 30.24 853 25.19 -19.3 -2.7 72 -23.1 -9.5
22:10 1024 30.24 853 25.19 -18.9 -2.1 71 -22.9 -9.3
22:15 1024 30.24 853 25.19 -18.8 -1.8 72 -22.7 -8.8
22:20 1024 30.24 853 25.19 -18.6 -1.6 71 -22.6 -8.7
22:25 1024 30.24 853 25.19 -18.6 -1.5 70 -22.9 -9.2
22:30 1024 30.24 853 25.19 -19 -2.2 73 -22.8 -9
22:35 1024 30.24 853 25.19 -18.8 -1.8 73 -22.5 -8.5
22:40 1024 30.24 853 25.19 -18.6 -1.6 72 -22.5 -8.6
22:45 1024 30.24 853 25.19 -18.5 -1.4 71 -22.5 -8.5
22:50 1024 30.24 853 25.19 -18.7 -1.7 73 -22.5 -8.5
22:55 1024 30.24 853 25.19 -18.6 -1.5 71 -22.7 -8.8
23:00 1024 30.24 853 25.19 -19.1 -2.3 73 -22.8 -9
23:05 1024 30.24 853 25.19 -19.2 -2.6 73 -22.9 -9.1
23:10 1024 30.24 853 25.19 -19.3 -2.7 74 -22.9 -9.2
23:15 1024 30.24 853 25.19 -19.2 -2.6 73 -22.8 -9.1
23:20 1024 30.24 853 25.19 -19.6 -3.3 72 -23.4 -10.2
23:25 1024 30.24 853 25.19 -20.3 -4.5 77 -23.4 -10.1
23:30 1024 30.24 853 25.19 -19.7 -3.5 76 -23 -9.4
23:35 1024 30.24 853 25.19 -19.7 -3.4 74 -23.2 -9.8
23:40 1024 30.24 853 25.19 -20.1 -4.3 75 -23.5 -10.4
23:45 1024 30.24 853 25.19 -20.4 -4.6 76 -23.6 -10.5
23:50 1024 30.24 853 25.19 -20.5 -4.8 75 -23.9 -11
23:55 1024 30.24 853 25.19 -20.7 -5.3 75 -24 -11.2
24:00 1024 30.24 853 25.19 -20.7 -5.3 75 -24 -11.2